sensor_id;sensor_type;location;lat;lon;timestamp;P1;durP1;ratioP1;P2;durP2;ratioP2
21354;SDS011;10835;50.148;19.760;2023-01-19T00:01:40;13.63;;;4.90;;
21354;SDS011;10835;50.148;19.760;2023-01-19T00:04:08;9.82;;;5.10;;
21354;SDS011;10835;50.148;19.760;2023-01-19T00:06:36;8.85;;;4.55;;
21354;SDS011;10835;50.148;19.760;2023-01-19T00:09:06;10.30;;;4.18;;
21354;SDS011;10835;50.148;19.760;2023-01-19T00:11:34;8.30;;;4.15;;
21354;SDS011;10835;50.148;19.760;2023-01-19T00:14:02;9.55;;;4.32;;
21354;SDS011;10835;50.148;19.760;2023-01-19T00:16:31;10.85;;;5.45;;
21354;SDS011;10835;50.148;19.760;2023-01-19T00:18:59;8.32;;;4.65;;
21354;SDS011;10835;50.148;19.760;2023-01-19T00:21:27;9.85;;;3.58;;
21354;SDS011;10835;50.148;19.760;2023-01-19T00:23:57;11.90;;;4.38;;
21354;SDS011;10835;50.148;19.760;2023-01-19T00:26:25;9.15;;;4.18;;
21354;SDS011;10835;50.148;19.760;2023-01-19T00:28:53;9.18;;;4.55;;
21354;SDS011;10835;50.148;19.760;2023-01-19T00:31:22;12.90;;;4.60;;
21354;SDS011;10835;50.148;19.760;2023-01-19T00:33:51;7.70;;;4.47;;
21354;SDS011;10835;50.148;19.760;2023-01-19T00:36:19;9.52;;;4.03;;
21354;SDS011;10835;50.148;19.760;2023-01-19T00:38:47;11.95;;;4.75;;
21354;SDS011;10835;50.148;19.760;2023-01-19T00:41:15;14.43;;;5.80;;
21354;SDS011;10835;50.148;19.760;2023-01-19T00:43:43;11.35;;;5.20;;
21354;SDS011;10835;50.148;19.760;2023-01-19T00:46:11;9.25;;;4.70;;
21354;SDS011;10835;50.148;19.760;2023-01-19T00:48:39;10.32;;;3.88;;
21354;SDS011;10835;50.148;19.760;2023-01-19T00:51:09;12.98;;;4.15;;
21354;SDS011;10835;50.148;19.760;2023-01-19T00:53:37;9.30;;;4.43;;
21354;SDS011;10835;50.148;19.760;2023-01-19T00:56:05;7.47;;;4.47;;
21354;SDS011;10835;50.148;19.760;2023-01-19T00:58:36;10.85;;;5.00;;
21354;SDS011;10835;50.148;19.760;2023-01-19T01:01:04;11.07;;;4.43;;
21354;SDS011;10835;50.148;19.760;2023-01-19T01:03:32;8.60;;;4.47;;
21354;SDS011;10835;50.148;19.760;2023-01-19T01:06:00;7.70;;;4.65;;
21354;SDS011;10835;50.148;19.760;2023-01-19T01:08:30;9.27;;;4.22;;
21354;SDS011;10835;50.148;19.760;2023-01-19T01:10:58;11.40;;;5.65;;
21354;SDS011;10835;50.148;19.760;2023-01-19T01:13:26;8.57;;;4.97;;
21354;SDS011;10835;50.148;19.760;2023-01-19T01:15:55;9.07;;;4.35;;
21354;SDS011;10835;50.148;19.760;2023-01-19T01:18:23;10.25;;;5.07;;
21354;SDS011;10835;50.148;19.760;2023-01-19T01:20:51;9.98;;;5.03;;
21354;SDS011;10835;50.148;19.760;2023-01-19T01:23:21;10.70;;;4.90;;
21354;SDS011;10835;50.148;19.760;2023-01-19T01:25:50;13.45;;;6.65;;
21354;SDS011;10835;50.148;19.760;2023-01-19T01:28:19;13.38;;;5.18;;
21354;SDS011;10835;50.148;19.760;2023-01-19T01:30:47;8.32;;;4.30;;
21354;SDS011;10835;50.148;19.760;2023-01-19T01:33:19;11.25;;;5.15;;
21354;SDS011;10835;50.148;19.760;2023-01-19T01:36:09;7.90;;;4.03;;
21354;SDS011;10835;50.148;19.760;2023-01-19T01:38:38;8.30;;;4.28;;
21354;SDS011;10835;50.148;19.760;2023-01-19T01:41:08;9.82;;;4.85;;
21354;SDS011;10835;50.148;19.760;2023-01-19T01:43:43;9.07;;;5.68;;
21354;SDS011;10835;50.148;19.760;2023-01-19T01:46:13;9.27;;;4.45;;
21354;SDS011;10835;50.148;19.760;2023-01-19T01:48:44;12.50;;;4.40;;
21354;SDS011;10835;50.148;19.760;2023-01-19T01:51:18;12.68;;;5.10;;
21354;SDS011;10835;50.148;19.760;2023-01-19T01:53:58;8.63;;;3.38;;
21354;SDS011;10835;50.148;19.760;2023-01-19T01:56:35;10.68;;;4.22;;
21354;SDS011;10835;50.148;19.760;2023-01-19T01:59:06;10.50;;;4.28;;
21354;SDS011;10835;50.148;19.760;2023-01-19T02:01:36;8.90;;;3.83;;
21354;SDS011;10835;50.148;19.760;2023-01-19T02:04:23;5.82;;;3.17;;
21354;SDS011;10835;50.148;19.760;2023-01-19T02:06:51;6.85;;;3.72;;
21354;SDS011;10835;50.148;19.760;2023-01-19T02:09:36;5.78;;;3.42;;
21354;SDS011;10835;50.148;19.760;2023-01-19T02:12:23;8.73;;;4.95;;
21354;SDS011;10835;50.148;19.760;2023-01-19T02:15:13;6.25;;;3.28;;
21354;SDS011;10835;50.148;19.760;2023-01-19T02:17:44;5.43;;;3.17;;
21354;SDS011;10835;50.148;19.760;2023-01-19T02:20:13;6.90;;;3.70;;
21354;SDS011;10835;50.148;19.760;2023-01-19T02:22:44;4.88;;;3.15;;
21354;SDS011;10835;50.148;19.760;2023-01-19T02:25:16;3.67;;;2.33;;
21354;SDS011;10835;50.148;19.760;2023-01-19T02:27:45;4.13;;;2.50;;
21354;SDS011;10835;50.148;19.760;2023-01-19T02:30:14;6.70;;;3.33;;
21354;SDS011;10835;50.148;19.760;2023-01-19T02:32:43;5.05;;;2.75;;
21354;SDS011;10835;50.148;19.760;2023-01-19T02:35:13;7.35;;;3.38;;
21354;SDS011;10835;50.148;19.760;2023-01-19T02:37:41;5.65;;;2.58;;
21354;SDS011;10835;50.148;19.760;2023-01-19T02:40:11;10.13;;;3.05;;
21354;SDS011;10835;50.148;19.760;2023-01-19T02:42:43;6.88;;;3.15;;
21354;SDS011;10835;50.148;19.760;2023-01-19T02:45:17;7.65;;;3.22;;
21354;SDS011;10835;50.148;19.760;2023-01-19T02:47:48;6.55;;;3.97;;
21354;SDS011;10835;50.148;19.760;2023-01-19T02:50:32;6.43;;;3.42;;
21354;SDS011;10835;50.148;19.760;2023-01-19T02:53:17;6.18;;;3.05;;
21354;SDS011;10835;50.148;19.760;2023-01-19T02:56:01;6.32;;;3.30;;
21354;SDS011;10835;50.148;19.760;2023-01-19T02:58:55;8.13;;;3.80;;
21354;SDS011;10835;50.148;19.760;2023-01-19T03:01:29;7.72;;;2.53;;
21354;SDS011;10835;50.148;19.760;2023-01-19T03:04:08;4.05;;;2.47;;
21354;SDS011;10835;50.148;19.760;2023-01-19T03:06:42;7.63;;;3.13;;
21354;SDS011;10835;50.148;19.760;2023-01-19T03:09:14;6.47;;;3.95;;
21354;SDS011;10835;50.148;19.760;2023-01-19T03:11:53;7.35;;;2.95;;
21354;SDS011;10835;50.148;19.760;2023-01-19T03:14:30;6.85;;;3.38;;
21354;SDS011;10835;50.148;19.760;2023-01-19T03:17:03;5.55;;;3.58;;
21354;SDS011;10835;50.148;19.760;2023-01-19T03:19:34;4.72;;;2.60;;
21354;SDS011;10835;50.148;19.760;2023-01-19T03:22:06;5.32;;;3.30;;
21354;SDS011;10835;50.148;19.760;2023-01-19T03:24:37;7.97;;;4.00;;
21354;SDS011;10835;50.148;19.760;2023-01-19T03:27:09;7.45;;;3.63;;
21354;SDS011;10835;50.148;19.760;2023-01-19T03:29:42;5.80;;;3.47;;
21354;SDS011;10835;50.148;19.760;2023-01-19T03:32:17;4.90;;;3.17;;
21354;SDS011;10835;50.148;19.760;2023-01-19T03:34:47;12.18;;;3.50;;
21354;SDS011;10835;50.148;19.760;2023-01-19T03:37:17;8.13;;;3.33;;
21354;SDS011;10835;50.148;19.760;2023-01-19T03:39:46;8.23;;;3.65;;
21354;SDS011;10835;50.148;19.760;2023-01-19T03:42:15;6.55;;;3.30;;
21354;SDS011;10835;50.148;19.760;2023-01-19T03:44:45;10.10;;;3.45;;
21354;SDS011;10835;50.148;19.760;2023-01-19T03:47:16;5.65;;;3.28;;
21354;SDS011;10835;50.148;19.760;2023-01-19T03:49:45;3.33;;;2.55;;
21354;SDS011;10835;50.148;19.760;2023-01-19T03:52:16;6.82;;;3.00;;
21354;SDS011;10835;50.148;19.760;2023-01-19T03:54:44;5.43;;;3.03;;
21354;SDS011;10835;50.148;19.760;2023-01-19T03:57:11;4.45;;;2.70;;
21354;SDS011;10835;50.148;19.760;2023-01-19T03:59:39;7.10;;;3.17;;
21354;SDS011;10835;50.148;19.760;2023-01-19T04:02:09;6.13;;;2.65;;
21354;SDS011;10835;50.148;19.760;2023-01-19T04:04:37;5.25;;;3.28;;
21354;SDS011;10835;50.148;19.760;2023-01-19T04:07:08;6.65;;;3.22;;
21354;SDS011;10835;50.148;19.760;2023-01-19T04:09:37;5.10;;;2.78;;
21354;SDS011;10835;50.148;19.760;2023-01-19T04:12:08;5.63;;;2.97;;
21354;SDS011;10835;50.148;19.760;2023-01-19T04:14:36;8.70;;;3.63;;
21354;SDS011;10835;50.148;19.760;2023-01-19T04:17:04;6.53;;;2.90;;
21354;SDS011;10835;50.148;19.760;2023-01-19T04:19:33;6.50;;;3.47;;
21354;SDS011;10835;50.148;19.760;2023-01-19T04:22:01;7.30;;;3.30;;
21354;SDS011;10835;50.148;19.760;2023-01-19T04:24:30;10.32;;;5.50;;
21354;SDS011;10835;50.148;19.760;2023-01-19T04:26:58;12.68;;;5.60;;
21354;SDS011;10835;50.148;19.760;2023-01-19T04:29:26;12.55;;;6.78;;
21354;SDS011;10835;50.148;19.760;2023-01-19T04:31:53;13.15;;;5.90;;
21354;SDS011;10835;50.148;19.760;2023-01-19T04:34:21;9.05;;;4.05;;
21354;SDS011;10835;50.148;19.760;2023-01-19T04:36:51;10.13;;;3.78;;
21354;SDS011;10835;50.148;19.760;2023-01-19T04:39:21;5.80;;;3.53;;
21354;SDS011;10835;50.148;19.760;2023-01-19T04:41:49;7.78;;;3.20;;
21354;SDS011;10835;50.148;19.760;2023-01-19T04:44:20;6.95;;;2.85;;
21354;SDS011;10835;50.148;19.760;2023-01-19T04:46:48;7.85;;;3.25;;
21354;SDS011;10835;50.148;19.760;2023-01-19T04:49:17;6.75;;;4.03;;
21354;SDS011;10835;50.148;19.760;2023-01-19T04:51:45;8.13;;;3.97;;
21354;SDS011;10835;50.148;19.760;2023-01-19T04:54:14;9.77;;;3.35;;
21354;SDS011;10835;50.148;19.760;2023-01-19T04:56:42;11.27;;;4.20;;
21354;SDS011;10835;50.148;19.760;2023-01-19T04:59:10;9.43;;;3.83;;
21354;SDS011;10835;50.148;19.760;2023-01-19T05:01:39;15.57;;;6.80;;
21354;SDS011;10835;50.148;19.760;2023-01-19T05:04:07;16.85;;;5.63;;
21354;SDS011;10835;50.148;19.760;2023-01-19T05:06:37;15.75;;;4.82;;
21354;SDS011;10835;50.148;19.760;2023-01-19T05:09:05;9.43;;;4.68;;
21354;SDS011;10835;50.148;19.760;2023-01-19T05:11:35;6.88;;;3.50;;
21354;SDS011;10835;50.148;19.760;2023-01-19T05:14:03;6.45;;;3.13;;
21354;SDS011;10835;50.148;19.760;2023-01-19T05:16:32;5.75;;;2.90;;
21354;SDS011;10835;50.148;19.760;2023-01-19T05:19:00;5.53;;;2.85;;
21354;SDS011;10835;50.148;19.760;2023-01-19T05:21:28;6.47;;;2.75;;
21354;SDS011;10835;50.148;19.760;2023-01-19T05:23:56;4.25;;;2.88;;
21354;SDS011;10835;50.148;19.760;2023-01-19T05:26:24;3.65;;;2.47;;
21354;SDS011;10835;50.148;19.760;2023-01-19T05:28:54;6.53;;;2.80;;
21354;SDS011;10835;50.148;19.760;2023-01-19T05:31:22;7.32;;;3.25;;
21354;SDS011;10835;50.148;19.760;2023-01-19T05:33:50;9.45;;;3.53;;
21354;SDS011;10835;50.148;19.760;2023-01-19T05:36:18;8.30;;;3.78;;
21354;SDS011;10835;50.148;19.760;2023-01-19T05:38:46;6.22;;;2.60;;
21354;SDS011;10835;50.148;19.760;2023-01-19T05:41:14;6.20;;;3.13;;
21354;SDS011;10835;50.148;19.760;2023-01-19T05:43:42;7.43;;;3.05;;
21354;SDS011;10835;50.148;19.760;2023-01-19T05:46:12;6.05;;;3.15;;
21354;SDS011;10835;50.148;19.760;2023-01-19T05:48:40;5.78;;;4.03;;
21354;SDS011;10835;50.148;19.760;2023-01-19T05:51:08;6.57;;;3.70;;
21354;SDS011;10835;50.148;19.760;2023-01-19T05:53:36;6.90;;;3.60;;
21354;SDS011;10835;50.148;19.760;2023-01-19T05:56:05;9.80;;;4.90;;
21354;SDS011;10835;50.148;19.760;2023-01-19T05:58:34;10.38;;;4.82;;
21354;SDS011;10835;50.148;19.760;2023-01-19T06:01:05;13.88;;;7.30;;
21354;SDS011;10835;50.148;19.760;2023-01-19T06:03:38;19.20;;;7.95;;
21354;SDS011;10835;50.148;19.760;2023-01-19T06:06:06;15.05;;;8.15;;
21354;SDS011;10835;50.148;19.760;2023-01-19T06:08:34;18.20;;;8.32;;
21354;SDS011;10835;50.148;19.760;2023-01-19T06:11:04;17.38;;;8.30;;
21354;SDS011;10835;50.148;19.760;2023-01-19T06:13:32;19.63;;;8.75;;
21354;SDS011;10835;50.148;19.760;2023-01-19T06:16:03;13.90;;;8.32;;
21354;SDS011;10835;50.148;19.760;2023-01-19T06:18:31;18.58;;;8.98;;
21354;SDS011;10835;50.148;19.760;2023-01-19T06:21:03;20.30;;;7.72;;
21354;SDS011;10835;50.148;19.760;2023-01-19T06:23:32;24.75;;;9.45;;
21354;SDS011;10835;50.148;19.760;2023-01-19T06:26:01;17.08;;;8.35;;
21354;SDS011;10835;50.148;19.760;2023-01-19T06:28:29;16.92;;;8.20;;
21354;SDS011;10835;50.148;19.760;2023-01-19T06:30:57;20.75;;;8.93;;
21354;SDS011;10835;50.148;19.760;2023-01-19T06:33:25;14.00;;;7.18;;
21354;SDS011;10835;50.148;19.760;2023-01-19T06:35:54;18.92;;;8.63;;
21354;SDS011;10835;50.148;19.760;2023-01-19T06:38:24;19.92;;;8.38;;
21354;SDS011;10835;50.148;19.760;2023-01-19T06:40:52;20.23;;;9.02;;
21354;SDS011;10835;50.148;19.760;2023-01-19T06:43:23;21.17;;;8.70;;
21354;SDS011;10835;50.148;19.760;2023-01-19T06:45:52;16.05;;;8.05;;
21354;SDS011;10835;50.148;19.760;2023-01-19T06:48:22;21.10;;;9.30;;
21354;SDS011;10835;50.148;19.760;2023-01-19T06:50:51;21.27;;;9.88;;
21354;SDS011;10835;50.148;19.760;2023-01-19T06:53:19;22.33;;;9.63;;
21354;SDS011;10835;50.148;19.760;2023-01-19T06:55:49;18.35;;;9.98;;
21354;SDS011;10835;50.148;19.760;2023-01-19T06:58:17;22.05;;;10.82;;
21354;SDS011;10835;50.148;19.760;2023-01-19T07:00:45;22.05;;;9.40;;
21354;SDS011;10835;50.148;19.760;2023-01-19T07:03:16;18.27;;;9.60;;
21354;SDS011;10835;50.148;19.760;2023-01-19T07:05:49;20.60;;;9.75;;
21354;SDS011;10835;50.148;19.760;2023-01-19T07:08:18;16.58;;;8.75;;
21354;SDS011;10835;50.148;19.760;2023-01-19T07:10:45;22.10;;;8.95;;
21354;SDS011;10835;50.148;19.760;2023-01-19T07:13:35;15.18;;;8.55;;
21354;SDS011;10835;50.148;19.760;2023-01-19T07:16:05;17.08;;;9.05;;
21354;SDS011;10835;50.148;19.760;2023-01-19T07:18:35;18.30;;;8.90;;
21354;SDS011;10835;50.148;19.760;2023-01-19T07:21:04;19.83;;;9.32;;
21354;SDS011;10835;50.148;19.760;2023-01-19T07:23:33;21.13;;;9.65;;
21354;SDS011;10835;50.148;19.760;2023-01-19T07:26:01;16.55;;;8.25;;
21354;SDS011;10835;50.148;19.760;2023-01-19T07:28:29;17.65;;;8.93;;
21354;SDS011;10835;50.148;19.760;2023-01-19T07:30:59;22.88;;;10.02;;
21354;SDS011;10835;50.148;19.760;2023-01-19T07:33:27;20.45;;;9.93;;
21354;SDS011;10835;50.148;19.760;2023-01-19T07:35:55;18.85;;;10.18;;
21354;SDS011;10835;50.148;19.760;2023-01-19T07:38:24;16.38;;;8.07;;
21354;SDS011;10835;50.148;19.760;2023-01-19T07:40:58;23.25;;;10.43;;
21354;SDS011;10835;50.148;19.760;2023-01-19T07:43:26;60.13;;;29.63;;
21354;SDS011;10835;50.148;19.760;2023-01-19T07:45:55;45.40;;;20.67;;
21354;SDS011;10835;50.148;19.760;2023-01-19T07:48:24;44.03;;;20.33;;
21354;SDS011;10835;50.148;19.760;2023-01-19T07:50:52;45.00;;;17.88;;
21354;SDS011;10835;50.148;19.760;2023-01-19T07:53:25;75.95;;;29.58;;
21354;SDS011;10835;50.148;19.760;2023-01-19T07:55:53;57.33;;;23.73;;
21354;SDS011;10835;50.148;19.760;2023-01-19T07:58:23;16.83;;;7.85;;
21354;SDS011;10835;50.148;19.760;2023-01-19T08:00:51;12.65;;;6.45;;
21354;SDS011;10835;50.148;19.760;2023-01-19T08:03:20;17.30;;;7.30;;
21354;SDS011;10835;50.148;19.760;2023-01-19T08:05:49;16.33;;;7.28;;
21354;SDS011;10835;50.148;19.760;2023-01-19T08:08:18;13.43;;;6.03;;
21354;SDS011;10835;50.148;19.760;2023-01-19T08:10:48;14.23;;;6.03;;
21354;SDS011;10835;50.148;19.760;2023-01-19T08:13:16;14.35;;;7.32;;
21354;SDS011;10835;50.148;19.760;2023-01-19T08:15:47;17.15;;;8.30;;
21354;SDS011;10835;50.148;19.760;2023-01-19T08:18:17;14.13;;;6.95;;
21354;SDS011;10835;50.148;19.760;2023-01-19T08:20:45;19.40;;;7.47;;
21354;SDS011;10835;50.148;19.760;2023-01-19T08:23:14;15.02;;;7.70;;
21354;SDS011;10835;50.148;19.760;2023-01-19T08:25:43;15.88;;;7.18;;
21354;SDS011;10835;50.148;19.760;2023-01-19T08:28:12;15.90;;;5.75;;
21354;SDS011;10835;50.148;19.760;2023-01-19T08:30:42;16.65;;;7.00;;
21354;SDS011;10835;50.148;19.760;2023-01-19T08:33:11;16.30;;;7.53;;
21354;SDS011;10835;50.148;19.760;2023-01-19T08:35:40;14.27;;;6.95;;
21354;SDS011;10835;50.148;19.760;2023-01-19T08:38:09;15.20;;;7.07;;
21354;SDS011;10835;50.148;19.760;2023-01-19T08:40:39;16.25;;;8.23;;
21354;SDS011;10835;50.148;19.760;2023-01-19T08:43:08;15.48;;;7.85;;
21354;SDS011;10835;50.148;19.760;2023-01-19T08:45:39;15.60;;;7.68;;
21354;SDS011;10835;50.148;19.760;2023-01-19T08:48:13;12.63;;;7.38;;
21354;SDS011;10835;50.148;19.760;2023-01-19T08:50:44;14.68;;;7.32;;
21354;SDS011;10835;50.148;19.760;2023-01-19T08:53:12;17.90;;;7.45;;
21354;SDS011;10835;50.148;19.760;2023-01-19T08:55:42;20.98;;;9.43;;
21354;SDS011;10835;50.148;19.760;2023-01-19T08:58:10;17.58;;;8.93;;
21354;SDS011;10835;50.148;19.760;2023-01-19T09:00:38;17.58;;;9.05;;
21354;SDS011;10835;50.148;19.760;2023-01-19T09:03:08;17.20;;;9.05;;
21354;SDS011;10835;50.148;19.760;2023-01-19T09:05:39;19.83;;;8.45;;
21354;SDS011;10835;50.148;19.760;2023-01-19T09:08:07;24.00;;;9.75;;
21354;SDS011;10835;50.148;19.760;2023-01-19T09:10:46;22.73;;;9.68;;
21354;SDS011;10835;50.148;19.760;2023-01-19T09:13:16;19.48;;;9.10;;
21354;SDS011;10835;50.148;19.760;2023-01-19T09:15:45;20.88;;;9.05;;
21354;SDS011;10835;50.148;19.760;2023-01-19T09:18:13;22.52;;;9.82;;
21354;SDS011;10835;50.148;19.760;2023-01-19T09:20:43;21.73;;;9.98;;
21354;SDS011;10835;50.148;19.760;2023-01-19T09:23:13;22.55;;;10.07;;
21354;SDS011;10835;50.148;19.760;2023-01-19T09:25:44;16.27;;;8.38;;
21354;SDS011;10835;50.148;19.760;2023-01-19T09:28:13;19.17;;;9.05;;
21354;SDS011;10835;50.148;19.760;2023-01-19T09:30:43;15.35;;;8.85;;
21354;SDS011;10835;50.148;19.760;2023-01-19T09:33:12;13.70;;;7.70;;
21354;SDS011;10835;50.148;19.760;2023-01-19T09:35:41;14.75;;;6.55;;
21354;SDS011;10835;50.148;19.760;2023-01-19T09:38:11;12.52;;;5.68;;
21354;SDS011;10835;50.148;19.760;2023-01-19T09:40:40;18.05;;;8.60;;
21354;SDS011;10835;50.148;19.760;2023-01-19T09:43:16;29.75;;;13.45;;
21354;SDS011;10835;50.148;19.760;2023-01-19T09:45:50;24.65;;;11.23;;
21354;SDS011;10835;50.148;19.760;2023-01-19T09:48:27;29.98;;;12.30;;
21354;SDS011;10835;50.148;19.760;2023-01-19T09:51:03;28.35;;;14.88;;
21354;SDS011;10835;50.148;19.760;2023-01-19T09:53:38;26.80;;;13.48;;
21354;SDS011;10835;50.148;19.760;2023-01-19T09:56:16;27.85;;;13.50;;
21354;SDS011;10835;50.148;19.760;2023-01-19T09:58:48;28.15;;;13.93;;
21354;SDS011;10835;50.148;19.760;2023-01-19T10:01:23;27.55;;;13.10;;
21354;SDS011;10835;50.148;19.760;2023-01-19T10:04:30;23.80;;;11.10;;
21354;SDS011;10835;50.148;19.760;2023-01-19T10:07:15;20.42;;;9.63;;
21354;SDS011;10835;50.148;19.760;2023-01-19T10:09:56;25.50;;;12.90;;
21354;SDS011;10835;50.148;19.760;2023-01-19T10:12:38;39.53;;;19.63;;
21354;SDS011;10835;50.148;19.760;2023-01-19T10:15:16;34.72;;;14.18;;
21354;SDS011;10835;50.148;19.760;2023-01-19T10:17:52;29.17;;;12.35;;
21354;SDS011;10835;50.148;19.760;2023-01-19T10:20:31;24.92;;;11.75;;
21354;SDS011;10835;50.148;19.760;2023-01-19T10:23:12;31.85;;;12.90;;
21354;SDS011;10835;50.148;19.760;2023-01-19T10:25:48;28.17;;;12.75;;
21354;SDS011;10835;50.148;19.760;2023-01-19T10:28:16;31.58;;;13.23;;
21354;SDS011;10835;50.148;19.760;2023-01-19T10:30:49;31.58;;;13.85;;
21354;SDS011;10835;50.148;19.760;2023-01-19T10:33:20;29.88;;;12.05;;
21354;SDS011;10835;50.148;19.760;2023-01-19T10:35:48;21.50;;;10.50;;
21354;SDS011;10835;50.148;19.760;2023-01-19T10:38:16;24.10;;;10.45;;
21354;SDS011;10835;50.148;19.760;2023-01-19T10:40:49;20.02;;;9.25;;
21354;SDS011;10835;50.148;19.760;2023-01-19T10:43:36;16.10;;;8.60;;
21354;SDS011;10835;50.148;19.760;2023-01-19T10:46:13;15.00;;;7.85;;
21354;SDS011;10835;50.148;19.760;2023-01-19T10:48:46;19.73;;;9.13;;
21354;SDS011;10835;50.148;19.760;2023-01-19T10:51:16;20.58;;;9.43;;
21354;SDS011;10835;50.148;19.760;2023-01-19T10:53:55;21.38;;;9.27;;
21354;SDS011;10835;50.148;19.760;2023-01-19T10:56:26;22.20;;;9.13;;
21354;SDS011;10835;50.148;19.760;2023-01-19T10:58:58;23.88;;;11.18;;
21354;SDS011;10835;50.148;19.760;2023-01-19T11:01:28;26.55;;;10.05;;
21354;SDS011;10835;50.148;19.760;2023-01-19T11:06:47;24.02;;;10.95;;
21354;SDS011;10835;50.148;19.760;2023-01-19T11:09:15;29.90;;;12.00;;
21354;SDS011;10835;50.148;19.760;2023-01-19T11:11:45;32.50;;;13.65;;
21354;SDS011;10835;50.148;19.760;2023-01-19T11:14:17;30.60;;;13.70;;
21354;SDS011;10835;50.148;19.760;2023-01-19T11:16:48;30.95;;;12.35;;
21354;SDS011;10835;50.148;19.760;2023-01-19T11:19:20;28.17;;;11.95;;
21354;SDS011;10835;50.148;19.760;2023-01-19T11:22:06;25.38;;;10.77;;
21354;SDS011;10835;50.148;19.760;2023-01-19T11:24:38;19.75;;;9.55;;
21354;SDS011;10835;50.148;19.760;2023-01-19T11:27:06;20.05;;;9.55;;
21354;SDS011;10835;50.148;19.760;2023-01-19T11:29:34;22.70;;;10.30;;
21354;SDS011;10835;50.148;19.760;2023-01-19T11:32:17;19.48;;;9.32;;
21354;SDS011;10835;50.148;19.760;2023-01-19T11:34:47;20.90;;;9.43;;
21354;SDS011;10835;50.148;19.760;2023-01-19T11:37:35;23.08;;;10.52;;
21354;SDS011;10835;50.148;19.760;2023-01-19T11:40:05;23.17;;;9.20;;
21354;SDS011;10835;50.148;19.760;2023-01-19T11:42:35;27.35;;;13.52;;
21354;SDS011;10835;50.148;19.760;2023-01-19T11:45:05;21.75;;;10.57;;
21354;SDS011;10835;50.148;19.760;2023-01-19T11:47:41;22.63;;;11.30;;
21354;SDS011;10835;50.148;19.760;2023-01-19T11:50:12;16.38;;;7.28;;
21354;SDS011;10835;50.148;19.760;2023-01-19T11:52:49;20.13;;;9.32;;
21354;SDS011;10835;50.148;19.760;2023-01-19T11:55:27;25.52;;;13.05;;
21354;SDS011;10835;50.148;19.760;2023-01-19T11:58:00;23.08;;;11.63;;
21354;SDS011;10835;50.148;19.760;2023-01-19T12:00:32;28.13;;;12.32;;
21354;SDS011;10835;50.148;19.760;2023-01-19T12:03:05;27.77;;;13.98;;
21354;SDS011;10835;50.148;19.760;2023-01-19T12:05:39;25.23;;;12.43;;
21354;SDS011;10835;50.148;19.760;2023-01-19T12:08:14;25.75;;;11.48;;
21354;SDS011;10835;50.148;19.760;2023-01-19T12:10:46;26.75;;;12.48;;
21354;SDS011;10835;50.148;19.760;2023-01-19T12:13:17;25.20;;;11.85;;
21354;SDS011;10835;50.148;19.760;2023-01-19T12:15:48;28.63;;;12.60;;
21354;SDS011;10835;50.148;19.760;2023-01-19T12:18:21;30.73;;;16.13;;
21354;SDS011;10835;50.148;19.760;2023-01-19T12:20:53;29.38;;;13.73;;
21354;SDS011;10835;50.148;19.760;2023-01-19T12:23:27;27.45;;;13.43;;
21354;SDS011;10835;50.148;19.760;2023-01-19T12:26:19;25.65;;;10.63;;
21354;SDS011;10835;50.148;19.760;2023-01-19T12:28:53;24.75;;;13.07;;
21354;SDS011;10835;50.148;19.760;2023-01-19T12:31:26;23.00;;;10.90;;
21354;SDS011;10835;50.148;19.760;2023-01-19T12:33:56;22.17;;;11.35;;
21354;SDS011;10835;50.148;19.760;2023-01-19T12:37:05;19.23;;;8.40;;
21354;SDS011;10835;50.148;19.760;2023-01-19T12:39:54;22.73;;;9.40;;
21354;SDS011;10835;50.148;19.760;2023-01-19T12:42:24;22.38;;;10.50;;
21354;SDS011;10835;50.148;19.760;2023-01-19T12:44:53;20.70;;;10.07;;
21354;SDS011;10835;50.148;19.760;2023-01-19T12:47:37;20.05;;;10.50;;
21354;SDS011;10835;50.148;19.760;2023-01-19T12:50:10;26.50;;;10.85;;
21354;SDS011;10835;50.148;19.760;2023-01-19T12:52:46;21.73;;;9.93;;
21354;SDS011;10835;50.148;19.760;2023-01-19T12:55:25;23.55;;;10.82;;
21354;SDS011;10835;50.148;19.760;2023-01-19T12:57:57;22.80;;;10.80;;
21354;SDS011;10835;50.148;19.760;2023-01-19T13:00:29;20.83;;;10.70;;
21354;SDS011;10835;50.148;19.760;2023-01-19T13:03:03;24.70;;;11.30;;
21354;SDS011;10835;50.148;19.760;2023-01-19T13:05:54;22.63;;;11.68;;
21354;SDS011;10835;50.148;19.760;2023-01-19T13:08:23;19.40;;;10.93;;
21354;SDS011;10835;50.148;19.760;2023-01-19T13:17:05;22.83;;;10.77;;
21354;SDS011;10835;50.148;19.760;2023-01-19T13:20:00;16.90;;;8.73;;
21354;SDS011;10835;50.148;19.760;2023-01-19T13:25:57;23.50;;;10.38;;
21354;SDS011;10835;50.148;19.760;2023-01-19T13:28:31;14.32;;;7.13;;
21354;SDS011;10835;50.148;19.760;2023-01-19T13:31:03;22.92;;;9.98;;
21354;SDS011;10835;50.148;19.760;2023-01-19T13:33:35;31.02;;;11.20;;
21354;SDS011;10835;50.148;19.760;2023-01-19T13:36:12;22.70;;;11.00;;
21354;SDS011;10835;50.148;19.760;2023-01-19T13:38:52;17.30;;;9.18;;
21354;SDS011;10835;50.148;19.760;2023-01-19T13:41:25;18.63;;;8.48;;
21354;SDS011;10835;50.148;19.760;2023-01-19T13:44:00;14.60;;;7.45;;
21354;SDS011;10835;50.148;19.760;2023-01-19T13:46:33;17.95;;;8.25;;
21354;SDS011;10835;50.148;19.760;2023-01-19T13:49:04;17.05;;;7.65;;
21354;SDS011;10835;50.148;19.760;2023-01-19T13:51:41;17.60;;;7.43;;
21354;SDS011;10835;50.148;19.760;2023-01-19T13:54:13;13.05;;;6.75;;
21354;SDS011;10835;50.148;19.760;2023-01-19T13:56:46;18.85;;;8.10;;
21354;SDS011;10835;50.148;19.760;2023-01-19T13:59:15;21.55;;;9.43;;
21354;SDS011;10835;50.148;19.760;2023-01-19T14:01:44;21.10;;;9.80;;
21354;SDS011;10835;50.148;19.760;2023-01-19T14:04:26;16.52;;;6.68;;
21354;SDS011;10835;50.148;19.760;2023-01-19T14:06:57;15.70;;;7.40;;
21354;SDS011;10835;50.148;19.760;2023-01-19T14:09:30;15.85;;;8.73;;
21354;SDS011;10835;50.148;19.760;2023-01-19T14:12:13;18.33;;;8.18;;
21354;SDS011;10835;50.148;19.760;2023-01-19T14:14:43;16.60;;;6.57;;
21354;SDS011;10835;50.148;19.760;2023-01-19T14:17:20;21.58;;;8.20;;
21354;SDS011;10835;50.148;19.760;2023-01-19T14:19:50;15.40;;;6.75;;
21354;SDS011;10835;50.148;19.760;2023-01-19T14:22:19;16.77;;;8.00;;
21354;SDS011;10835;50.148;19.760;2023-01-19T14:24:47;16.73;;;7.60;;
21354;SDS011;10835;50.148;19.760;2023-01-19T14:27:18;18.13;;;7.32;;
21354;SDS011;10835;50.148;19.760;2023-01-19T14:29:48;19.52;;;8.80;;
21354;SDS011;10835;50.148;19.760;2023-01-19T14:32:19;15.30;;;7.75;;
21354;SDS011;10835;50.148;19.760;2023-01-19T14:34:49;16.25;;;6.68;;
21354;SDS011;10835;50.148;19.760;2023-01-19T14:37:23;14.93;;;6.53;;
21354;SDS011;10835;50.148;19.760;2023-01-19T14:39:54;20.85;;;6.90;;
21354;SDS011;10835;50.148;19.760;2023-01-19T14:42:27;14.43;;;6.63;;
21354;SDS011;10835;50.148;19.760;2023-01-19T14:44:58;15.00;;;6.35;;
21354;SDS011;10835;50.148;19.760;2023-01-19T14:47:32;18.08;;;7.55;;
21354;SDS011;10835;50.148;19.760;2023-01-19T14:50:05;13.55;;;5.20;;
21354;SDS011;10835;50.148;19.760;2023-01-19T14:52:47;17.50;;;6.32;;
21354;SDS011;10835;50.148;19.760;2023-01-19T14:55:19;15.88;;;7.78;;
21354;SDS011;10835;50.148;19.760;2023-01-19T14:57:52;17.80;;;8.27;;
21354;SDS011;10835;50.148;19.760;2023-01-19T15:00:21;16.35;;;7.70;;
21354;SDS011;10835;50.148;19.760;2023-01-19T15:02:49;17.10;;;7.47;;